Главная страница
METAR-TAF:

METAR-TAF

Аэропорты :

Ashtabula County Airport

Ashtabula, Огайо, США

широта: 41-46-46N, долгота: 080-41-48W, высота над уровнем моря: 281 м

Текущие метеонаблюдения

Эта сводка был подготовлена 1 час и 11 минут назад, в 18:53 UTC
Ветер 11 Узел от западно-северо-западный с порывами до 21 Узел
Температура 8°C
Влажность 76%
Давление 1010 hPa
Видимость: 16.1 км
Рассеянная облачность на высоте 2600 фута
Сплошная облачность на высоте 3300 фута

METAR: KHZY 171853Z AUTO 30011G21KT 10SM BKN026 OVC033 08/04 A2982 RMK AO2 SLP101 T00830039

Время: 16:04 (20:04 UTC)


TAF: отсутствует

Метеонаблюдения и прогнозы для более 4000 аэропортов (сводки METAR и TAF).

Имеющиеся станции представлены на карте желтыми и красными точками.

Чтобы увидеть название станции, наведите на нее мышь.

Затем щелкните, чтобы увидеть метеонаблюдения и метеопрогнозы.

Управление картой: чтобы увеличить масштаб, щелкните зеленые кнопки с черным крестиком; чтобы уменьшить масштаб, щелкните зеленую кнопку с тире; для просмотра соседних карт щелкайте зеленые стрелки.


METAR-TAF: